Strona główna
METAR-TAF:

METAR-TAF

Lotnisko :

Port lotniczy Cần Thơ

Cần Thơ, Wietnam

Szerokość geograficzna: 10-05-07N, Długość geograficzna: 105-42-43E, wysokość: 3 m

Aktualna obserwacja pogody

Raport powstał 46 minut temu, godzina 14:30 UTC
Wiatr 5 kt od wschodnio-południowy wschód, zmienny między wschodnio-północny wschód i południowy wschód
Temperatura 28°C
Wilgotność 84%
Ciśnienie 1011 hPa
Widzialność 10 km lub więcej
Mało chmury na wysokości 1300 ft

METAR: VVCT 231430Z 11005KT 070V130 9999 FEW013 28/25 Q1011 NOSIG

czas: 22:16 (15:16 UTC)

Prognoza

Raport powstał 4 godziny i 16 minut temu, godzina 11:00 UTC
Prognoza ważna od 23 godzina 12 UTC do 24 godzina 12 UTC
Wiatr 8 kt od wschód
Widzialność 10 km lub więcej
Rozproszone chmury na wysokości 1500 ft
Rozproszone chmury na wysokości 5000 ft

TAF: VVCT 231100Z 2312/2412 10008KT 9999 SCT015 SCT050

Obserwacja i prognoza pogody dla ponad 4000 lotnisk (raport METAR i TAF).

Dostępne stacje oznaczono żółtymi i czerwonymi punktami na mapie.

Najedź kursorem aby zobaczyć nazwę stacji.

Kliknij aby zobaczyć obserwacje i prognozy pogody.

Aby zmienić mapę: kliknij na zielony przycisk z czarnym krzyżykiem, aby powiększyć; na zielony przycisk z myślnikiem, aby pomniejszyć; na zielone strzałki, aby przejść do map sąsiednich.


METAR-TAF: